createdAt,value
2022-08-20T00:01:57.622Z,20.30
2022-08-20T00:04:25.019Z,20.20
2022-08-20T00:06:53.206Z,20.30
2022-08-20T00:09:20.549Z,20.30
2022-08-20T00:11:47.844Z,20.30
2022-08-20T00:14:15.233Z,20.40
2022-08-20T00:16:42.930Z,20.50
2022-08-20T00:19:10.788Z,20.50
2022-08-20T00:21:38.204Z,20.50
2022-08-20T00:24:06.947Z,20.50
2022-08-20T00:26:34.419Z,20.20
2022-08-20T00:29:04.524Z,19.80
2022-08-20T00:31:32.054Z,19.50
2022-08-20T00:34:00.428Z,19.50
2022-08-20T00:36:32.133Z,19.50
2022-08-20T00:39:01.389Z,19.50
2022-08-20T00:41:31.655Z,19.50
2022-08-20T00:44:11.665Z,19.50
2022-08-20T00:46:40.164Z,19.30
2022-08-20T00:49:10.112Z,19.10
2022-08-20T00:51:41.118Z,19.00
2022-08-20T00:54:20.530Z,19.00
2022-08-20T00:56:52.812Z,19.20
2022-08-20T00:59:24.052Z,19.40
2022-08-20T01:01:55.658Z,19.70
2022-08-20T01:04:28.197Z,19.90
2022-08-20T01:06:56.716Z,20.00
2022-08-20T01:09:49.675Z,19.90
2022-08-20T01:12:17.573Z,19.50
2022-08-20T01:14:46.948Z,19.40
2022-08-20T01:17:29.389Z,19.50
2022-08-20T01:20:11.710Z,19.70
2022-08-20T01:23:01.757Z,19.80
2022-08-20T01:25:48.959Z,20.00
2022-08-20T01:28:21.462Z,20.10
2022-08-20T01:30:49.331Z,20.00
2022-08-20T01:33:19.179Z,19.70
2022-08-20T01:35:47.117Z,19.50
2022-08-20T01:38:14.832Z,19.50
2022-08-20T01:40:47.609Z,19.30
2022-08-20T01:43:15.254Z,19.20
2022-08-20T01:45:44.871Z,18.90
2022-08-20T01:48:15.350Z,18.80
2022-08-20T01:51:08.835Z,18.80
2022-08-20T01:53:39.843Z,19.00
2022-08-20T01:56:09.673Z,19.20
2022-08-20T01:58:42.515Z,19.20
2022-08-20T02:01:33.336Z,19.30
2022-08-20T02:04:14.712Z,19.20
2022-08-20T02:06:56.243Z,19.00
2022-08-20T02:09:27.910Z,18.70
2022-08-20T02:11:56.933Z,18.60
2022-08-20T02:14:24.866Z,18.40
2022-08-20T02:16:55.096Z,18.60
2022-08-20T02:19:38.531Z,18.80
2022-08-20T02:22:24.963Z,19.00
2022-08-20T02:24:53.051Z,19.20
2022-08-20T02:27:25.434Z,19.30
2022-08-20T02:29:53.993Z,19.30
2022-08-20T02:32:32.173Z,19.10
2022-08-20T02:35:04.357Z,19.10
2022-08-20T02:37:31.991Z,19.10
2022-08-20T02:39:59.756Z,19.20
2022-08-20T02:42:28.054Z,19.40
2022-08-20T02:44:56.261Z,19.40
2022-08-20T02:47:23.757Z,19.40
2022-08-20T02:49:51.104Z,18.70
2022-08-20T02:52:18.860Z,18.50
2022-08-20T02:54:46.265Z,18.70
2022-08-20T02:57:15.030Z,18.70
2022-08-20T02:59:44.062Z,18.70
2022-08-20T03:02:12.197Z,18.90
2022-08-20T03:04:39.511Z,19.00
2022-08-20T03:07:07.369Z,19.00
2022-08-20T03:09:34.698Z,18.90
2022-08-20T03:12:04.972Z,18.70
2022-08-20T03:14:35.329Z,18.40
2022-08-20T03:17:04.349Z,18.40
2022-08-20T03:19:31.683Z,18.50
2022-08-20T03:21:59.338Z,18.60
2022-08-20T03:24:26.609Z,18.70
2022-08-20T03:26:54.511Z,18.90
2022-08-20T03:29:22.227Z,19.00
2022-08-20T03:31:49.502Z,19.00
2022-08-20T03:34:16.777Z,19.00
2022-08-20T03:36:44.206Z,18.70
2022-08-20T03:39:13.428Z,18.50
2022-08-20T03:41:40.823Z,18.50
2022-08-20T03:44:08.138Z,18.40
2022-08-20T03:46:36.523Z,18.50
2022-08-20T03:49:04.160Z,18.70
2022-08-20T03:51:57.550Z,18.70
2022-08-20T03:54:20.892Z,18.80
2022-08-20T03:56:48.348Z,18.60
2022-08-20T03:59:16.155Z,18.60
2022-08-20T04:01:46.296Z,18.60
2022-08-20T04:04:14.764Z,18.80
2022-08-20T04:06:42.995Z,18.50
2022-08-20T04:09:12.391Z,18.50
2022-08-20T04:11:41.089Z,18.60
2022-08-20T04:14:10.381Z,18.70
2022-08-20T04:16:40.640Z,18.50
2022-08-20T04:19:08.858Z,18.60
2022-08-20T04:21:37.008Z,18.60
2022-08-20T04:24:06.925Z,18.70
2022-08-20T04:26:37.433Z,18.80
2022-08-20T04:29:06.839Z,18.90
2022-08-20T04:31:37.039Z,19.00
2022-08-20T04:34:08.070Z,19.10
2022-08-20T04:36:35.991Z,19.20
2022-08-20T04:39:03.523Z,19.30
2022-08-20T04:41:31.099Z,19.10
2022-08-20T04:43:58.589Z,18.50
2022-08-20T04:46:28.847Z,18.30
2022-08-20T04:48:56.840Z,18.40
2022-08-20T04:51:25.221Z,18.70
2022-08-20T04:53:57.516Z,18.90
2022-08-20T04:56:26.620Z,19.20
2022-08-20T04:58:59.215Z,19.20
2022-08-20T05:01:28.286Z,19.20
2022-08-20T05:03:57.332Z,19.20
2022-08-20T05:06:30.582Z,19.20
2022-08-20T05:09:00.454Z,18.90
2022-08-20T05:11:35.703Z,18.90
2022-08-20T05:14:06.057Z,19.20
2022-08-20T05:16:39.509Z,19.50
2022-08-20T05:19:09.807Z,19.50
2022-08-20T05:21:37.945Z,19.70
2022-08-20T05:24:07.604Z,19.70
2022-08-20T05:26:35.476Z,19.90
2022-08-20T05:29:05.243Z,20.00
2022-08-20T05:31:34.953Z,20.00
2022-08-20T05:34:04.393Z,20.00
2022-08-20T05:36:31.752Z,20.10
2022-08-20T05:38:59.282Z,20.40
2022-08-20T05:41:30.400Z,20.60
2022-08-20T05:44:02.233Z,20.80
2022-08-20T05:46:31.827Z,21.00
2022-08-20T05:49:02.045Z,21.00
2022-08-20T05:51:30.419Z,21.00
2022-08-20T05:53:58.236Z,20.90
2022-08-20T05:56:31.163Z,20.90
2022-08-20T05:59:02.685Z,20.90
2022-08-20T06:01:30.987Z,21.00
2022-08-20T06:04:17.286Z,21.10
2022-08-20T06:06:47.628Z,21.10
2022-08-20T06:09:31.800Z,21.30
2022-08-20T06:12:06.661Z,21.50
2022-08-20T06:14:34.800Z,21.60
2022-08-20T06:17:13.449Z,21.60
2022-08-20T06:19:44.474Z,21.70
2022-08-20T06:22:18.743Z,21.70
2022-08-20T06:24:49.865Z,21.80
2022-08-20T06:27:17.527Z,21.70
2022-08-20T06:29:45.012Z,21.80
2022-08-20T06:32:14.344Z,21.90
2022-08-20T06:34:49.787Z,21.80
2022-08-20T06:37:31.157Z,22.00
2022-08-20T06:40:13.248Z,22.20
2022-08-20T06:42:48.049Z,22.00
2022-08-20T06:45:24.580Z,21.90
2022-08-20T06:47:55.640Z,21.80
2022-08-20T06:50:43.153Z,21.70
2022-08-20T06:53:21.241Z,21.70
2022-08-20T06:55:54.615Z,21.60
2022-08-20T06:58:35.724Z,21.50
2022-08-20T07:01:09.925Z,21.70
2022-08-20T07:03:54.104Z,21.70
2022-08-20T07:06:27.557Z,21.90
2022-08-20T07:08:57.958Z,22.10
2022-08-20T07:11:28.463Z,22.10
2022-08-20T07:13:58.525Z,22.20
2022-08-20T07:16:26.679Z,22.50
2022-08-20T07:18:54.337Z,22.30
2022-08-20T07:21:23.853Z,22.50
2022-08-20T07:23:53.229Z,22.70
2022-08-20T07:26:21.323Z,22.80
2022-08-20T07:28:52.507Z,22.90
2022-08-20T07:31:40.126Z,23.00
2022-08-20T07:34:11.595Z,23.30
2022-08-20T07:36:40.584Z,23.50
2022-08-20T07:39:07.864Z,23.40
2022-08-20T07:41:43.768Z,23.60
2022-08-20T07:44:31.007Z,23.80
2022-08-20T07:47:00.857Z,23.90
2022-08-20T07:49:28.168Z,24.00
2022-08-20T07:51:55.905Z,24.00
2022-08-20T07:54:24.039Z,24.20
2022-08-20T07:56:56.358Z,24.20
2022-08-20T07:59:24.290Z,24.10
2022-08-20T08:01:53.766Z,23.90
2022-08-20T08:04:21.238Z,23.60
2022-08-20T08:06:48.894Z,23.90
2022-08-20T08:09:17.243Z,24.20
2022-08-20T08:11:52.626Z,24.20
2022-08-20T08:14:26.885Z,24.00
2022-08-20T08:16:58.295Z,23.50
2022-08-20T08:19:41.465Z,23.30
2022-08-20T08:22:13.157Z,23.60
2022-08-20T08:24:57.478Z,24.00
2022-08-20T08:27:25.993Z,24.10
2022-08-20T08:29:55.027Z,24.20
2022-08-20T08:32:22.890Z,23.90
2022-08-20T08:34:50.435Z,23.70
2022-08-20T08:37:18.065Z,23.60
2022-08-20T08:39:47.895Z,23.90
2022-08-20T08:42:44.166Z,24.00
2022-08-20T08:45:16.183Z,23.90
2022-08-20T08:47:44.885Z,23.80
2022-08-20T08:50:53.232Z,24.00
2022-08-20T08:53:30.875Z,23.90
2022-08-20T08:56:00.016Z,23.80
2022-08-20T08:58:28.300Z,24.10
2022-08-20T09:00:56.342Z,24.20
2022-08-20T09:03:29.576Z,24.30
2022-08-20T09:06:00.812Z,24.50
2022-08-20T09:08:37.627Z,24.50
2022-08-20T09:11:07.693Z,24.80
2022-08-20T09:13:35.486Z,25.00
2022-08-20T09:16:03.615Z,25.00
2022-08-20T09:18:30.905Z,25.00
2022-08-20T09:20:58.342Z,25.30
2022-08-20T09:23:26.558Z,25.30
2022-08-20T09:25:58.721Z,25.30
2022-08-20T09:28:32.468Z,25.40
2022-08-20T09:31:03.273Z,25.30
2022-08-20T09:33:31.874Z,25.30
2022-08-20T09:35:59.611Z,25.30
2022-08-20T09:38:28.036Z,25.20
2022-08-20T09:40:55.475Z,25.40
2022-08-20T09:43:23.370Z,25.40
2022-08-20T09:45:52.279Z,25.40
2022-08-20T09:48:19.682Z,25.60
2022-08-20T09:50:50.476Z,25.60
2022-08-20T09:53:19.840Z,25.60
2022-08-20T09:55:53.037Z,25.70
2022-08-20T09:58:53.110Z,25.80
2022-08-20T10:01:23.489Z,25.80
2022-08-20T10:03:51.920Z,25.80
2022-08-20T10:06:21.851Z,25.70
2022-08-20T10:08:50.044Z,25.90
2022-08-20T10:11:19.148Z,26.00
2022-08-20T10:13:46.659Z,26.00
2022-08-20T10:16:14.332Z,26.00
2022-08-20T10:18:41.664Z,26.00
2022-08-20T10:21:11.629Z,26.40
2022-08-20T10:23:39.013Z,26.40
2022-08-20T10:26:08.776Z,26.30
2022-08-20T10:28:36.532Z,26.60
2022-08-20T10:31:07.152Z,26.90
2022-08-20T10:33:36.995Z,27.20
2022-08-20T10:36:16.902Z,27.10
2022-08-20T10:38:45.202Z,27.00
2022-08-20T10:41:12.964Z,27.00
2022-08-20T10:43:40.474Z,27.30
2022-08-20T10:46:07.920Z,27.50
2022-08-20T10:48:35.436Z,28.10
2022-08-20T10:51:02.897Z,28.20
2022-08-20T10:53:30.413Z,28.10
2022-08-20T10:56:00.848Z,27.50
2022-08-20T10:58:35.640Z,27.40
2022-08-20T11:01:07.817Z,27.90
2022-08-20T11:03:35.463Z,28.00
2022-08-20T11:06:03.784Z,27.80
2022-08-20T11:08:34.117Z,27.80
2022-08-20T11:11:05.045Z,28.10
2022-08-20T11:13:34.330Z,27.70
2022-08-20T11:16:05.515Z,27.70
2022-08-20T11:18:33.689Z,27.70
2022-08-20T11:21:01.624Z,27.70
2022-08-20T11:23:31.228Z,27.70
2022-08-20T11:26:00.755Z,28.10
2022-08-20T11:28:31.708Z,28.30
2022-08-20T11:31:01.457Z,28.40
2022-08-20T11:33:29.455Z,28.30
2022-08-20T11:35:57.914Z,28.10
2022-08-20T11:38:25.661Z,28.30
2022-08-20T11:40:52.986Z,28.00
2022-08-20T11:43:20.418Z,28.30
2022-08-20T11:45:54.476Z,28.60
2022-08-20T11:48:22.394Z,28.60
2022-08-20T11:50:50.485Z,28.50
2022-08-20T11:53:18.757Z,28.30
2022-08-20T11:55:47.399Z,28.20
2022-08-20T11:58:15.661Z,28.10
2022-08-20T12:00:43.277Z,28.40
2022-08-20T12:03:11.775Z,28.80
2022-08-20T12:05:44.846Z,29.10
2022-08-20T12:08:27.186Z,29.20
2022-08-20T12:11:00.217Z,28.50
2022-08-20T12:13:47.826Z,28.60
2022-08-20T12:16:18.792Z,29.00
2022-08-20T12:18:47.802Z,29.30
2022-08-20T12:21:15.942Z,29.00
2022-08-20T12:23:43.437Z,29.10
2022-08-20T12:26:10.877Z,29.00
2022-08-20T12:28:38.383Z,28.50
2022-08-20T12:31:06.236Z,28.50
2022-08-20T12:33:36.210Z,28.90
2022-08-20T12:36:06.722Z,29.00
2022-08-20T12:38:34.214Z,29.40
2022-08-20T12:41:05.736Z,30.00
2022-08-20T12:43:33.136Z,29.00
2022-08-20T12:46:02.172Z,29.00
2022-08-20T12:48:34.939Z,29.40
2022-08-20T12:51:02.794Z,29.70
2022-08-20T12:53:30.108Z,29.70
2022-08-20T12:55:58.101Z,29.70
2022-08-20T12:58:26.017Z,29.30
2022-08-20T13:00:53.734Z,29.80
2022-08-20T13:03:21.378Z,29.80
2022-08-20T13:05:50.333Z,30.30
2022-08-20T13:08:19.553Z,30.60
2022-08-20T13:10:47.228Z,30.60
2022-08-20T13:13:17.569Z,30.50
2022-08-20T13:15:52.417Z,29.90
2022-08-20T13:18:21.341Z,30.20
2022-08-20T13:20:49.329Z,30.60
2022-08-20T13:23:17.151Z,31.00
2022-08-20T13:25:44.572Z,30.90
2022-08-20T13:28:13.228Z,30.70
2022-08-20T13:30:41.691Z,30.30
2022-08-20T13:33:10.683Z,30.50
2022-08-20T13:35:38.114Z,30.60
2022-08-20T13:38:07.541Z,30.10
2022-08-20T13:40:36.117Z,30.20
2022-08-20T13:43:07.181Z,30.70
2022-08-20T13:45:39.137Z,31.00
2022-08-20T13:48:14.846Z,31.10
2022-08-20T13:50:47.177Z,30.90
2022-08-20T13:53:18.345Z,30.60
2022-08-20T13:55:46.290Z,30.90
2022-08-20T13:58:13.973Z,30.90
2022-08-20T14:00:41.796Z,30.10
2022-08-20T14:03:10.433Z,30.30
2022-08-20T14:05:39.103Z,30.60
2022-08-20T14:08:16.271Z,30.90
2022-08-20T14:10:52.667Z,31.00
2022-08-20T14:13:29.086Z,31.20
2022-08-20T14:15:56.957Z,31.10
2022-08-20T14:18:25.668Z,31.10
2022-08-20T14:20:53.107Z,31.20
2022-08-20T14:23:20.423Z,31.20
2022-08-20T14:25:50.272Z,31.20
2022-08-20T14:28:23.039Z,30.60
2022-08-20T14:30:52.933Z,30.50
2022-08-20T14:33:22.264Z,30.50
2022-08-20T14:35:49.685Z,31.10
2022-08-20T14:38:17.027Z,31.00
2022-08-20T14:40:44.979Z,31.10
2022-08-20T14:43:12.359Z,31.00
2022-08-20T14:45:42.059Z,30.50
2022-08-20T14:48:11.468Z,30.70
2022-08-20T14:50:42.405Z,30.50
2022-08-20T14:53:10.341Z,30.30
2022-08-20T14:55:38.213Z,30.20
2022-08-20T14:58:13.444Z,30.00
2022-08-20T15:00:41.686Z,30.00
2022-08-20T15:03:09.347Z,29.50
2022-08-20T15:05:39.568Z,29.20
2022-08-20T15:08:10.738Z,29.40
2022-08-20T15:10:39.374Z,29.80
2022-08-20T15:13:07.075Z,29.90
2022-08-20T15:15:35.183Z,29.90
2022-08-20T15:18:03.644Z,29.60
2022-08-20T15:20:33.697Z,29.50
2022-08-20T15:23:01.462Z,29.50
2022-08-20T15:25:36.239Z,29.80
2022-08-20T15:28:07.475Z,29.90
2022-08-20T15:30:35.115Z,29.50
2022-08-20T15:33:02.750Z,29.20
2022-08-20T15:35:30.920Z,29.40
2022-08-20T15:37:59.874Z,29.70
2022-08-20T15:40:29.866Z,29.70
2022-08-20T15:42:58.673Z,29.40
2022-08-20T15:45:27.466Z,29.10
2022-08-20T15:48:02.747Z,29.00
2022-08-20T15:51:11.797Z,29.10
2022-08-20T15:53:54.526Z,29.20
2022-08-20T15:56:32.415Z,29.50
2022-08-20T15:59:14.475Z,29.50
2022-08-20T16:02:02.368Z,29.30
2022-08-20T16:04:45.323Z,29.50
2022-08-20T16:07:23.946Z,29.50
2022-08-20T16:10:38.250Z,29.50
2022-08-20T16:13:19.540Z,29.30
2022-08-20T16:15:49.605Z,29.20
2022-08-20T16:18:23.228Z,29.10
2022-08-20T16:20:54.293Z,29.00
2022-08-20T16:23:28.623Z,29.10
2022-08-20T16:26:11.461Z,28.90
2022-08-20T16:28:50.413Z,28.70
2022-08-20T16:31:25.913Z,28.60
2022-08-20T16:34:32.320Z,28.60
2022-08-20T16:38:02.479Z,28.60
2022-08-20T16:40:56.743Z,28.60
2022-08-20T16:43:36.893Z,28.50
2022-08-20T16:46:20.248Z,28.60
2022-08-20T16:48:59.733Z,28.60
2022-08-20T16:51:39.482Z,28.60
2022-08-20T16:54:08.899Z,28.50
2022-08-20T16:56:42.397Z,28.50
2022-08-20T16:59:18.351Z,28.30
2022-08-20T17:02:37.445Z,28.10
2022-08-20T17:05:53.820Z,27.80
2022-08-20T17:09:18.974Z,27.50
2022-08-20T17:12:54.469Z,27.40
2022-08-20T17:15:50.222Z,27.40
2022-08-20T17:18:35.486Z,27.40
2022-08-20T17:21:13.584Z,27.30
2022-08-20T17:23:55.913Z,27.30
2022-08-20T17:26:35.494Z,27.20
2022-08-20T17:29:22.074Z,27.20
2022-08-20T17:31:52.839Z,27.20
2022-08-20T17:34:28.744Z,27.10
2022-08-20T17:37:05.421Z,27.00
2022-08-20T17:39:33.445Z,27.00
2022-08-20T17:42:22.195Z,26.90
2022-08-20T17:45:12.002Z,26.90
2022-08-20T17:47:40.294Z,26.80
2022-08-20T17:50:17.428Z,26.80
2022-08-20T17:52:56.528Z,26.80
2022-08-20T17:55:25.565Z,26.70
2022-08-20T17:57:57.475Z,26.70
2022-08-20T18:00:29.195Z,26.60
2022-08-20T18:03:20.698Z,26.50
2022-08-20T18:05:57.523Z,26.50
2022-08-20T18:08:43.036Z,26.30
2022-08-20T18:11:25.149Z,26.30
2022-08-20T18:14:01.560Z,26.40
2022-08-20T18:16:42.837Z,26.20
2022-08-20T18:19:19.630Z,26.30
2022-08-20T18:22:06.284Z,26.30
2022-08-20T18:25:09.886Z,26.10
2022-08-20T18:27:44.589Z,26.10
2022-08-20T18:30:21.895Z,26.10
2022-08-20T18:32:59.142Z,26.00
2022-08-20T18:35:37.759Z,26.00
2022-08-20T18:38:22.997Z,26.00
2022-08-20T18:40:54.601Z,25.90
2022-08-20T18:43:31.622Z,26.00
2022-08-20T18:46:23.076Z,26.00
2022-08-20T18:48:53.243Z,25.80
2022-08-20T18:51:28.662Z,25.90
2022-08-20T18:53:56.507Z,25.80
2022-08-20T18:56:33.139Z,25.80
2022-08-20T18:59:02.416Z,25.70
2022-08-20T19:01:35.006Z,25.60
2022-08-20T19:04:12.571Z,25.60
2022-08-20T19:07:02.410Z,25.60
2022-08-20T19:09:46.969Z,25.60
2022-08-20T19:12:51.741Z,25.50
2022-08-20T19:15:22.126Z,25.60
2022-08-20T19:18:18.188Z,25.70
2022-08-20T19:20:59.089Z,25.80
2022-08-20T19:23:30.011Z,25.70
2022-08-20T19:26:05.088Z,25.60
2022-08-20T19:28:41.208Z,25.70
2022-08-20T19:31:27.145Z,25.70
2022-08-20T19:34:23.994Z,25.70
2022-08-20T19:37:09.998Z,25.70
2022-08-20T19:39:49.407Z,25.70
2022-08-20T19:42:22.148Z,25.60
2022-08-20T19:45:03.959Z,25.30
2022-08-20T19:47:46.396Z,25.10
2022-08-20T19:50:39.753Z,24.80
2022-08-20T19:53:16.444Z,24.80
2022-08-20T19:55:44.916Z,24.80
2022-08-20T19:58:26.588Z,24.90
2022-08-20T20:00:55.858Z,24.90
2022-08-20T20:03:34.488Z,24.70
2022-08-20T20:06:17.227Z,24.70
2022-08-20T20:09:00.428Z,24.60
2022-08-20T20:11:37.441Z,23.90
2022-08-20T20:14:08.758Z,23.20
2022-08-20T20:16:37.599Z,23.40
2022-08-20T20:19:25.779Z,23.60
2022-08-20T20:22:18.936Z,23.80
2022-08-20T20:25:05.276Z,23.80
2022-08-20T20:27:34.359Z,23.80
2022-08-20T20:30:12.836Z,23.90
2022-08-20T20:32:44.911Z,23.90
2022-08-20T20:35:25.783Z,24.00
2022-08-20T20:38:14.988Z,23.80
2022-08-20T20:40:50.613Z,23.60
2022-08-20T20:43:38.301Z,23.60
2022-08-20T20:46:14.844Z,23.50
2022-08-20T20:48:54.075Z,23.50
2022-08-20T20:51:35.591Z,23.50
2022-08-20T20:54:07.150Z,23.40
2022-08-20T20:56:42.409Z,23.30
2022-08-20T20:59:10.935Z,23.20
2022-08-20T21:01:50.054Z,23.20
2022-08-20T21:04:22.657Z,23.10
2022-08-20T21:06:52.281Z,23.20
2022-08-20T21:09:21.522Z,23.10
2022-08-20T21:11:49.078Z,22.50
2022-08-20T21:14:18.521Z,22.60
2022-08-20T21:16:46.949Z,22.50
2022-08-20T21:19:14.951Z,22.50
2022-08-20T21:21:42.745Z,22.70
2022-08-20T21:24:10.127Z,22.80
2022-08-20T21:26:39.656Z,22.70
2022-08-20T21:29:09.721Z,22.80
2022-08-20T21:31:43.938Z,22.90
2022-08-20T21:34:13.490Z,22.80
2022-08-20T21:36:41.839Z,22.90
2022-08-20T21:39:09.826Z,22.90
2022-08-20T21:41:38.387Z,22.60
2022-08-20T21:44:21.095Z,22.80
2022-08-20T21:46:50.978Z,22.80
2022-08-20T21:49:19.990Z,22.00
2022-08-20T21:51:48.300Z,21.80
2022-08-20T21:54:16.716Z,21.90
2022-08-20T21:57:02.933Z,22.10
2022-08-20T21:59:31.361Z,22.30
2022-08-20T22:02:01.492Z,22.40
2022-08-20T22:04:34.909Z,22.10
2022-08-20T22:07:04.219Z,21.90
2022-08-20T22:09:33.282Z,21.90
2022-08-20T22:12:03.244Z,21.60
2022-08-20T22:14:31.891Z,21.70
2022-08-20T22:17:00.051Z,21.90
2022-08-20T22:19:27.772Z,21.60
2022-08-20T22:21:57.311Z,21.70
2022-08-20T22:24:28.784Z,21.90
2022-08-20T22:26:57.424Z,22.10
2022-08-20T22:29:25.311Z,22.30
2022-08-20T22:31:53.507Z,22.30
2022-08-20T22:34:21.526Z,22.50
2022-08-20T22:36:51.266Z,22.60
2022-08-20T22:39:19.325Z,21.90
2022-08-20T22:41:46.770Z,21.70
2022-08-20T22:44:14.732Z,21.60
2022-08-20T22:46:48.046Z,21.50
2022-08-20T22:49:22.640Z,21.50
2022-08-20T22:51:57.911Z,21.70
2022-08-20T22:54:32.748Z,21.70
2022-08-20T22:57:02.298Z,21.80
2022-08-20T22:59:32.037Z,21.90
2022-08-20T23:02:07.986Z,21.90
2022-08-20T23:04:37.416Z,22.00
2022-08-20T23:07:10.806Z,21.90
2022-08-20T23:09:41.417Z,21.90
2022-08-20T23:12:09.203Z,21.80
2022-08-20T23:14:37.294Z,21.70
2022-08-20T23:17:13.685Z,21.50
2022-08-20T23:19:44.040Z,21.60
2022-08-20T23:22:12.038Z,21.70
2022-08-20T23:24:41.309Z,21.90
2022-08-20T23:27:13.453Z,21.90
2022-08-20T23:29:41.871Z,21.50
2022-08-20T23:32:10.972Z,21.30
2022-08-20T23:34:38.455Z,20.70
2022-08-20T23:37:07.767Z,20.80
2022-08-20T23:39:35.387Z,20.90
2022-08-20T23:42:02.788Z,21.10
2022-08-20T23:44:31.201Z,21.20
2022-08-20T23:47:02.323Z,21.40
2022-08-20T23:49:31.947Z,21.70
2022-08-20T23:52:00.855Z,21.30
2022-08-20T23:54:30.316Z,21.10
2022-08-20T23:56:59.010Z,21.30
2022-08-20T23:59:26.719Z,21.30
